sensor_id;sensor_type;location;lat;lon;timestamp;P1;durP1;ratioP1;P2;durP2;ratioP2
53714;SDS011;39608;55.630;37.864;2022-11-20T00:00:11;5.35;;;3.50;;
53714;SDS011;39608;55.630;37.864;2022-11-20T00:05:14;4.65;;;3.38;;
53714;SDS011;39608;55.630;37.864;2022-11-20T00:10:16;5.30;;;3.75;;
53714;SDS011;39608;55.630;37.864;2022-11-20T00:15:19;6.05;;;3.85;;
53714;SDS011;39608;55.630;37.864;2022-11-20T00:20:21;5.35;;;3.83;;
53714;SDS011;39608;55.630;37.864;2022-11-20T00:25:23;7.53;;;3.60;;
53714;SDS011;39608;55.630;37.864;2022-11-20T00:30:27;6.65;;;3.53;;
53714;SDS011;39608;55.630;37.864;2022-11-20T00:35:29;8.52;;;4.40;;
53714;SDS011;39608;55.630;37.864;2022-11-20T00:40:31;4.68;;;3.72;;
53714;SDS011;39608;55.630;37.864;2022-11-20T00:45:34;4.32;;;3.22;;
53714;SDS011;39608;55.630;37.864;2022-11-20T00:50:36;8.55;;;3.97;;
53714;SDS011;39608;55.630;37.864;2022-11-20T00:55:38;6.85;;;4.05;;
53714;SDS011;39608;55.630;37.864;2022-11-20T01:00:42;5.63;;;3.92;;
53714;SDS011;39608;55.630;37.864;2022-11-20T01:05:44;5.68;;;4.15;;
53714;SDS011;39608;55.630;37.864;2022-11-20T01:10:46;7.32;;;3.33;;
53714;SDS011;39608;55.630;37.864;2022-11-20T01:15:49;4.70;;;3.38;;
53714;SDS011;39608;55.630;37.864;2022-11-20T01:20:53;5.93;;;3.35;;
53714;SDS011;39608;55.630;37.864;2022-11-20T01:25:55;5.75;;;3.17;;
53714;SDS011;39608;55.630;37.864;2022-11-20T01:30:59;3.97;;;3.22;;
53714;SDS011;39608;55.630;37.864;2022-11-20T01:36:05;5.25;;;3.10;;
53714;SDS011;39608;55.630;37.864;2022-11-20T01:41:07;4.47;;;3.25;;
53714;SDS011;39608;55.630;37.864;2022-11-20T01:46:16;5.75;;;3.67;;
53714;SDS011;39608;55.630;37.864;2022-11-20T01:51:20;4.43;;;3.47;;
53714;SDS011;39608;55.630;37.864;2022-11-20T01:56:27;5.18;;;3.22;;
53714;SDS011;39608;55.630;37.864;2022-11-20T02:01:31;4.93;;;3.28;;
53714;SDS011;39608;55.630;37.864;2022-11-20T02:06:35;6.65;;;3.47;;
53714;SDS011;39608;55.630;37.864;2022-11-20T02:11:40;4.32;;;3.22;;
53714;SDS011;39608;55.630;37.864;2022-11-20T02:16:45;5.05;;;3.20;;
53714;SDS011;39608;55.630;37.864;2022-11-20T02:21:50;8.38;;;3.03;;
53714;SDS011;39608;55.630;37.864;2022-11-20T02:26:59;5.15;;;3.08;;
53714;SDS011;39608;55.630;37.864;2022-11-20T02:32:05;7.65;;;3.80;;
53714;SDS011;39608;55.630;37.864;2022-11-20T02:37:07;5.47;;;3.83;;
53714;SDS011;39608;55.630;37.864;2022-11-20T02:42:10;4.63;;;3.17;;
53714;SDS011;39608;55.630;37.864;2022-11-20T02:47:12;6.85;;;4.05;;
53714;SDS011;39608;55.630;37.864;2022-11-20T02:52:14;4.65;;;3.80;;
53714;SDS011;39608;55.630;37.864;2022-11-20T02:57:18;7.15;;;4.05;;
53714;SDS011;39608;55.630;37.864;2022-11-20T03:02:20;7.57;;;3.70;;
53714;SDS011;39608;55.630;37.864;2022-11-20T03:07:22;6.35;;;3.67;;
53714;SDS011;39608;55.630;37.864;2022-11-20T03:12:25;8.75;;;4.22;;
53714;SDS011;39608;55.630;37.864;2022-11-20T03:17:27;6.97;;;3.35;;
53714;SDS011;39608;55.630;37.864;2022-11-20T03:22:31;7.20;;;4.00;;
53714;SDS011;39608;55.630;37.864;2022-11-20T03:27:34;7.60;;;3.75;;
53714;SDS011;39608;55.630;37.864;2022-11-20T03:32:36;5.80;;;3.40;;
53714;SDS011;39608;55.630;37.864;2022-11-20T03:37:38;5.93;;;3.60;;
53714;SDS011;39608;55.630;37.864;2022-11-20T03:42:42;4.80;;;3.28;;
53714;SDS011;39608;55.630;37.864;2022-11-20T03:47:46;6.18;;;3.47;;
53714;SDS011;39608;55.630;37.864;2022-11-20T03:52:48;12.40;;;3.65;;
53714;SDS011;39608;55.630;37.864;2022-11-20T03:57:52;7.30;;;4.32;;
53714;SDS011;39608;55.630;37.864;2022-11-20T04:02:57;8.23;;;3.97;;
53714;SDS011;39608;55.630;37.864;2022-11-20T04:07:59;5.97;;;3.47;;
53714;SDS011;39608;55.630;37.864;2022-11-20T04:13:02;6.30;;;4.22;;
53714;SDS011;39608;55.630;37.864;2022-11-20T04:18:04;8.80;;;3.97;;
53714;SDS011;39608;55.630;37.864;2022-11-20T04:23:06;7.88;;;4.13;;
53714;SDS011;39608;55.630;37.864;2022-11-20T04:28:10;6.25;;;4.05;;
53714;SDS011;39608;55.630;37.864;2022-11-20T04:33:12;4.88;;;3.53;;
53714;SDS011;39608;55.630;37.864;2022-11-20T04:38:13;4.65;;;2.85;;
53714;SDS011;39608;55.630;37.864;2022-11-20T04:43:17;4.82;;;3.10;;
53714;SDS011;39608;55.630;37.864;2022-11-20T04:48:19;7.25;;;4.22;;
53714;SDS011;39608;55.630;37.864;2022-11-20T04:53:21;5.65;;;3.40;;
53714;SDS011;39608;55.630;37.864;2022-11-20T04:58:25;6.00;;;3.88;;
53714;SDS011;39608;55.630;37.864;2022-11-20T05:03:27;7.10;;;3.28;;
53714;SDS011;39608;55.630;37.864;2022-11-20T05:08:29;5.93;;;3.22;;
53714;SDS011;39608;55.630;37.864;2022-11-20T05:13:33;4.32;;;3.28;;
53714;SDS011;39608;55.630;37.864;2022-11-20T05:18:36;6.03;;;3.47;;
53714;SDS011;39608;55.630;37.864;2022-11-20T05:23:39;4.43;;;3.05;;
53714;SDS011;39608;55.630;37.864;2022-11-20T05:28:43;5.15;;;3.47;;
53714;SDS011;39608;55.630;37.864;2022-11-20T05:33:45;6.05;;;3.10;;
53714;SDS011;39608;55.630;37.864;2022-11-20T05:38:47;7.00;;;3.83;;
53714;SDS011;39608;55.630;37.864;2022-11-20T05:43:51;6.30;;;3.30;;
53714;SDS011;39608;55.630;37.864;2022-11-20T05:48:53;5.75;;;3.42;;
53714;SDS011;39608;55.630;37.864;2022-11-20T05:53:56;8.82;;;3.95;;
53714;SDS011;39608;55.630;37.864;2022-11-20T05:59:00;8.38;;;4.22;;
53714;SDS011;39608;55.630;37.864;2022-11-20T06:04:02;5.95;;;3.40;;
53714;SDS011;39608;55.630;37.864;2022-11-20T06:09:04;8.63;;;4.45;;
53714;SDS011;39608;55.630;37.864;2022-11-20T06:14:07;9.18;;;4.00;;
53714;SDS011;39608;55.630;37.864;2022-11-20T06:19:09;10.20;;;4.97;;
53714;SDS011;39608;55.630;37.864;2022-11-20T06:24:11;7.65;;;4.20;;
53714;SDS011;39608;55.630;37.864;2022-11-20T06:29:15;8.25;;;4.43;;
53714;SDS011;39608;55.630;37.864;2022-11-20T06:34:17;9.70;;;4.75;;
53714;SDS011;39608;55.630;37.864;2022-11-20T06:39:19;8.20;;;4.57;;
53714;SDS011;39608;55.630;37.864;2022-11-20T06:44:22;5.43;;;3.90;;
53714;SDS011;39608;55.630;37.864;2022-11-20T06:49:25;9.10;;;4.72;;
53714;SDS011;39608;55.630;37.864;2022-11-20T06:54:27;11.35;;;4.05;;
53714;SDS011;39608;55.630;37.864;2022-11-20T06:59:30;9.18;;;4.40;;
53714;SDS011;39608;55.630;37.864;2022-11-20T07:04:33;9.98;;;4.35;;
53714;SDS011;39608;55.630;37.864;2022-11-20T07:09:35;7.22;;;4.55;;
53714;SDS011;39608;55.630;37.864;2022-11-20T07:14:39;7.45;;;4.28;;
53714;SDS011;39608;55.630;37.864;2022-11-20T07:19:41;6.50;;;3.75;;
53714;SDS011;39608;55.630;37.864;2022-11-20T07:24:43;8.02;;;4.18;;
53714;SDS011;39608;55.630;37.864;2022-11-20T07:29:46;7.30;;;4.30;;
53714;SDS011;39608;55.630;37.864;2022-11-20T07:34:48;6.20;;;3.92;;
53714;SDS011;39608;55.630;37.864;2022-11-20T07:39:50;7.13;;;4.55;;
53714;SDS011;39608;55.630;37.864;2022-11-20T07:44:56;6.18;;;4.28;;
53714;SDS011;39608;55.630;37.864;2022-11-20T07:49:58;6.57;;;4.40;;
53714;SDS011;39608;55.630;37.864;2022-11-20T07:55:00;6.45;;;4.65;;
53714;SDS011;39608;55.630;37.864;2022-11-20T08:00:08;9.82;;;4.70;;
53714;SDS011;39608;55.630;37.864;2022-11-20T08:05:13;10.27;;;4.28;;
53714;SDS011;39608;55.630;37.864;2022-11-20T08:10:15;5.85;;;4.10;;
53714;SDS011;39608;55.630;37.864;2022-11-20T08:15:19;7.57;;;4.70;;
53714;SDS011;39608;55.630;37.864;2022-11-20T08:20:21;6.25;;;3.75;;
53714;SDS011;39608;55.630;37.864;2022-11-20T08:25:23;6.82;;;4.72;;
53714;SDS011;39608;55.630;37.864;2022-11-20T08:30:27;7.93;;;4.90;;
53714;SDS011;39608;55.630;37.864;2022-11-20T08:35:32;9.95;;;4.57;;
53714;SDS011;39608;55.630;37.864;2022-11-20T08:40:35;6.45;;;4.05;;
53714;SDS011;39608;55.630;37.864;2022-11-20T08:45:39;11.40;;;4.75;;
53714;SDS011;39608;55.630;37.864;2022-11-20T08:50:41;8.43;;;4.72;;
53714;SDS011;39608;55.630;37.864;2022-11-20T08:55:43;8.75;;;3.95;;
53714;SDS011;39608;55.630;37.864;2022-11-20T09:00:47;7.57;;;4.43;;
53714;SDS011;39608;55.630;37.864;2022-11-20T09:05:49;8.27;;;4.53;;
53714;SDS011;39608;55.630;37.864;2022-11-20T09:10:51;9.85;;;5.25;;
53714;SDS011;39608;55.630;37.864;2022-11-20T09:15:55;10.52;;;5.30;;
53714;SDS011;39608;55.630;37.864;2022-11-20T09:20:58;8.48;;;5.82;;
53714;SDS011;39608;55.630;37.864;2022-11-20T09:26:04;8.77;;;5.35;;
53714;SDS011;39608;55.630;37.864;2022-11-20T09:31:09;11.27;;;6.47;;
53714;SDS011;39608;55.630;37.864;2022-11-20T09:36:18;9.23;;;6.25;;
53714;SDS011;39608;55.630;37.864;2022-11-20T09:41:31;13.82;;;5.97;;
53714;SDS011;39608;55.630;37.864;2022-11-20T09:47:00;10.65;;;6.63;;
53714;SDS011;39608;55.630;37.864;2022-11-20T09:52:09;10.48;;;5.70;;
53714;SDS011;39608;55.630;37.864;2022-11-20T09:57:30;12.00;;;6.55;;
53714;SDS011;39608;55.630;37.864;2022-11-20T10:02:39;12.70;;;7.10;;
53714;SDS011;39608;55.630;37.864;2022-11-20T10:07:47;13.27;;;7.07;;
53714;SDS011;39608;55.630;37.864;2022-11-20T10:13:00;13.85;;;7.32;;
53714;SDS011;39608;55.630;37.864;2022-11-20T10:18:20;12.70;;;7.10;;
53714;SDS011;39608;55.630;37.864;2022-11-20T10:23:35;11.52;;;6.85;;
53714;SDS011;39608;55.630;37.864;2022-11-20T10:34:17;16.38;;;8.00;;
53714;SDS011;39608;55.630;37.864;2022-11-20T10:39:25;18.27;;;8.48;;
53714;SDS011;39608;55.630;37.864;2022-11-20T10:44:34;14.68;;;7.43;;
53714;SDS011;39608;55.630;37.864;2022-11-20T10:49:57;15.75;;;8.93;;
53714;SDS011;39608;55.630;37.864;2022-11-20T10:55:06;20.05;;;8.57;;
53714;SDS011;39608;55.630;37.864;2022-11-20T11:00:17;17.08;;;8.35;;
53714;SDS011;39608;55.630;37.864;2022-11-20T11:05:27;15.88;;;8.80;;
53714;SDS011;39608;55.630;37.864;2022-11-20T11:10:36;19.17;;;8.82;;
53714;SDS011;39608;55.630;37.864;2022-11-20T11:15:47;16.60;;;9.02;;
53714;SDS011;39608;55.630;37.864;2022-11-20T11:20:51;20.55;;;9.50;;
53714;SDS011;39608;55.630;37.864;2022-11-20T11:25:56;18.88;;;9.43;;
53714;SDS011;39608;55.630;37.864;2022-11-20T11:30:59;21.67;;;10.45;;
53714;SDS011;39608;55.630;37.864;2022-11-20T11:36:03;16.25;;;8.40;;
53714;SDS011;39608;55.630;37.864;2022-11-20T11:41:19;17.45;;;10.32;;
53714;SDS011;39608;55.630;37.864;2022-11-20T11:46:25;24.15;;;11.13;;
53714;SDS011;39608;55.630;37.864;2022-11-20T11:51:36;19.38;;;9.20;;
53714;SDS011;39608;55.630;37.864;2022-11-20T11:56:46;20.50;;;8.77;;
53714;SDS011;39608;55.630;37.864;2022-11-20T12:01:50;14.85;;;8.25;;
53714;SDS011;39608;55.630;37.864;2022-11-20T12:06:58;16.02;;;9.35;;
53714;SDS011;39608;55.630;37.864;2022-11-20T12:12:05;18.00;;;9.95;;
53714;SDS011;39608;55.630;37.864;2022-11-20T12:17:13;18.00;;;8.75;;
53714;SDS011;39608;55.630;37.864;2022-11-20T12:22:19;19.42;;;7.85;;
53714;SDS011;39608;55.630;37.864;2022-11-20T12:27:41;12.80;;;7.10;;
53714;SDS011;39608;55.630;37.864;2022-11-20T12:38:35;13.52;;;6.82;;
53714;SDS011;39608;55.630;37.864;2022-11-20T12:43:52;11.07;;;6.50;;
53714;SDS011;39608;55.630;37.864;2022-11-20T12:49:23;10.60;;;6.13;;
53714;SDS011;39608;55.630;37.864;2022-11-20T12:54:42;12.35;;;6.45;;
53714;SDS011;39608;55.630;37.864;2022-11-20T12:59:59;10.52;;;6.22;;
53714;SDS011;39608;55.630;37.864;2022-11-20T13:05:15;11.60;;;6.13;;
53714;SDS011;39608;55.630;37.864;2022-11-20T13:10:23;11.20;;;5.47;;
53714;SDS011;39608;55.630;37.864;2022-11-20T13:15:35;15.88;;;6.97;;
53714;SDS011;39608;55.630;37.864;2022-11-20T13:20:45;8.90;;;6.35;;
53714;SDS011;39608;55.630;37.864;2022-11-20T13:25:49;15.68;;;6.57;;
53714;SDS011;39608;55.630;37.864;2022-11-20T13:30:53;13.77;;;7.30;;
53714;SDS011;39608;55.630;37.864;2022-11-20T13:35:57;17.33;;;7.70;;
53714;SDS011;39608;55.630;37.864;2022-11-20T13:41:02;13.70;;;8.02;;
53714;SDS011;39608;55.630;37.864;2022-11-20T13:46:34;20.00;;;9.35;;
53714;SDS011;39608;55.630;37.864;2022-11-20T13:51:40;16.38;;;9.02;;
53714;SDS011;39608;55.630;37.864;2022-11-20T13:56:50;19.35;;;8.77;;
53714;SDS011;39608;55.630;37.864;2022-11-20T14:02:00;20.70;;;9.88;;
53714;SDS011;39608;55.630;37.864;2022-11-20T14:07:02;20.58;;;9.93;;
53714;SDS011;39608;55.630;37.864;2022-11-20T14:12:14;22.55;;;11.20;;
53714;SDS011;39608;55.630;37.864;2022-11-20T14:17:20;33.72;;;13.27;;
53714;SDS011;39608;55.630;37.864;2022-11-20T14:22:23;25.58;;;13.18;;
53714;SDS011;39608;55.630;37.864;2022-11-20T14:27:28;28.55;;;13.68;;
53714;SDS011;39608;55.630;37.864;2022-11-20T14:32:30;23.42;;;13.68;;
53714;SDS011;39608;55.630;37.864;2022-11-20T14:37:33;29.38;;;14.10;;
53714;SDS011;39608;55.630;37.864;2022-11-20T14:42:43;40.75;;;16.02;;
53714;SDS011;39608;55.630;37.864;2022-11-20T14:47:45;34.70;;;16.52;;
53714;SDS011;39608;55.630;37.864;2022-11-20T14:52:51;36.40;;;15.15;;
53714;SDS011;39608;55.630;37.864;2022-11-20T14:57:57;35.70;;;15.43;;
53714;SDS011;39608;55.630;37.864;2022-11-20T15:03:03;41.38;;;17.13;;
53714;SDS011;39608;55.630;37.864;2022-11-20T15:08:17;33.60;;;16.35;;
53714;SDS011;39608;55.630;37.864;2022-11-20T15:13:24;42.75;;;16.90;;
53714;SDS011;39608;55.630;37.864;2022-11-20T15:18:30;36.00;;;16.27;;
53714;SDS011;39608;55.630;37.864;2022-11-20T15:23:37;40.47;;;17.63;;
53714;SDS011;39608;55.630;37.864;2022-11-20T15:28:41;40.90;;;16.58;;
53714;SDS011;39608;55.630;37.864;2022-11-20T15:33:47;41.90;;;16.58;;
53714;SDS011;39608;55.630;37.864;2022-11-20T15:38:50;43.72;;;16.38;;
53714;SDS011;39608;55.630;37.864;2022-11-20T15:43:55;37.95;;;15.02;;
53714;SDS011;39608;55.630;37.864;2022-11-20T15:48:57;36.63;;;15.90;;
53714;SDS011;39608;55.630;37.864;2022-11-20T15:54:03;35.28;;;16.23;;
53714;SDS011;39608;55.630;37.864;2022-11-20T15:59:13;34.90;;;16.50;;
53714;SDS011;39608;55.630;37.864;2022-11-20T16:04:16;32.17;;;14.85;;
53714;SDS011;39608;55.630;37.864;2022-11-20T16:09:18;26.77;;;13.27;;
53714;SDS011;39608;55.630;37.864;2022-11-20T16:14:22;33.05;;;12.25;;
53714;SDS011;39608;55.630;37.864;2022-11-20T16:19:41;29.63;;;12.80;;
53714;SDS011;39608;55.630;37.864;2022-11-20T16:24:43;33.88;;;12.98;;
53714;SDS011;39608;55.630;37.864;2022-11-20T16:29:47;36.92;;;13.43;;
53714;SDS011;39608;55.630;37.864;2022-11-20T16:34:50;30.77;;;13.48;;
53714;SDS011;39608;55.630;37.864;2022-11-20T16:39:52;33.97;;;14.35;;
53714;SDS011;39608;55.630;37.864;2022-11-20T16:44:58;25.85;;;13.15;;
53714;SDS011;39608;55.630;37.864;2022-11-20T16:50:00;34.38;;;14.18;;
53714;SDS011;39608;55.630;37.864;2022-11-20T16:55:05;29.67;;;13.85;;
53714;SDS011;39608;55.630;37.864;2022-11-20T17:00:09;34.85;;;13.23;;
53714;SDS011;39608;55.630;37.864;2022-11-20T17:05:14;30.55;;;12.82;;
53714;SDS011;39608;55.630;37.864;2022-11-20T17:10:16;27.30;;;13.70;;
53714;SDS011;39608;55.630;37.864;2022-11-20T17:15:19;29.92;;;13.07;;
53714;SDS011;39608;55.630;37.864;2022-11-20T17:20:22;26.42;;;13.18;;
53714;SDS011;39608;55.630;37.864;2022-11-20T17:25:24;28.38;;;13.27;;
53714;SDS011;39608;55.630;37.864;2022-11-20T17:30:27;35.60;;;13.45;;
53714;SDS011;39608;55.630;37.864;2022-11-20T17:35:30;35.95;;;12.40;;
53714;SDS011;39608;55.630;37.864;2022-11-20T17:40:32;28.80;;;12.93;;
53714;SDS011;39608;55.630;37.864;2022-11-20T17:45:36;28.45;;;12.05;;
53714;SDS011;39608;55.630;37.864;2022-11-20T17:50:38;30.33;;;13.18;;
53714;SDS011;39608;55.630;37.864;2022-11-20T17:55:40;25.80;;;12.73;;
53714;SDS011;39608;55.630;37.864;2022-11-20T18:01:04;25.38;;;10.32;;
53714;SDS011;39608;55.630;37.864;2022-11-20T18:06:08;23.38;;;9.80;;
53714;SDS011;39608;55.630;37.864;2022-11-20T18:11:12;20.15;;;9.85;;
53714;SDS011;39608;55.630;37.864;2022-11-20T18:16:16;21.75;;;9.02;;
53714;SDS011;39608;55.630;37.864;2022-11-20T18:21:19;23.05;;;10.43;;
53714;SDS011;39608;55.630;37.864;2022-11-20T18:26:21;23.40;;;9.35;;
53714;SDS011;39608;55.630;37.864;2022-11-20T18:31:25;20.00;;;8.52;;
53714;SDS011;39608;55.630;37.864;2022-11-20T18:36:29;20.33;;;8.68;;
53714;SDS011;39608;55.630;37.864;2022-11-20T18:41:33;17.30;;;8.38;;
53714;SDS011;39608;55.630;37.864;2022-11-20T18:46:56;21.85;;;8.82;;
53714;SDS011;39608;55.630;37.864;2022-11-20T18:51:58;15.70;;;7.68;;
53714;SDS011;39608;55.630;37.864;2022-11-20T18:57:01;15.30;;;7.05;;
53714;SDS011;39608;55.630;37.864;2022-11-20T19:02:05;16.75;;;8.07;;
53714;SDS011;39608;55.630;37.864;2022-11-20T19:07:09;21.08;;;10.15;;
53714;SDS011;39608;55.630;37.864;2022-11-20T19:12:12;25.65;;;11.60;;
53714;SDS011;39608;55.630;37.864;2022-11-20T19:17:15;23.52;;;12.27;;
53714;SDS011;39608;55.630;37.864;2022-11-20T19:22:20;26.02;;;12.50;;
53714;SDS011;39608;55.630;37.864;2022-11-20T19:27:22;31.15;;;13.02;;
53714;SDS011;39608;55.630;37.864;2022-11-20T19:32:25;34.25;;;13.32;;
53714;SDS011;39608;55.630;37.864;2022-11-20T19:37:27;31.20;;;13.82;;
53714;SDS011;39608;55.630;37.864;2022-11-20T19:42:32;48.72;;;15.27;;
53714;SDS011;39608;55.630;37.864;2022-11-20T19:47:36;30.15;;;13.80;;
53714;SDS011;39608;55.630;37.864;2022-11-20T19:52:38;28.92;;;13.18;;
53714;SDS011;39608;55.630;37.864;2022-11-20T19:57:40;42.45;;;15.10;;
53714;SDS011;39608;55.630;37.864;2022-11-20T20:02:44;31.67;;;14.27;;
53714;SDS011;39608;55.630;37.864;2022-11-20T20:07:46;35.33;;;15.32;;
53714;SDS011;39608;55.630;37.864;2022-11-20T20:12:48;31.90;;;13.00;;
53714;SDS011;39608;55.630;37.864;2022-11-20T20:17:51;24.85;;;11.52;;
53714;SDS011;39608;55.630;37.864;2022-11-20T20:22:53;33.08;;;12.15;;
53714;SDS011;39608;55.630;37.864;2022-11-20T20:27:56;24.58;;;12.18;;
53714;SDS011;39608;55.630;37.864;2022-11-20T20:32:59;29.10;;;12.45;;
53714;SDS011;39608;55.630;37.864;2022-11-20T20:38:01;24.42;;;11.63;;
53714;SDS011;39608;55.630;37.864;2022-11-20T20:43:03;25.60;;;10.90;;
53714;SDS011;39608;55.630;37.864;2022-11-20T20:48:06;29.38;;;12.50;;
53714;SDS011;39608;55.630;37.864;2022-11-20T20:53:09;27.17;;;11.90;;
53714;SDS011;39608;55.630;37.864;2022-11-20T20:58:11;24.00;;;11.27;;
53714;SDS011;39608;55.630;37.864;2022-11-20T21:03:14;24.30;;;10.02;;
53714;SDS011;39608;55.630;37.864;2022-11-20T21:08:16;20.38;;;9.85;;
53714;SDS011;39608;55.630;37.864;2022-11-20T21:13:22;25.35;;;9.48;;
53714;SDS011;39608;55.630;37.864;2022-11-20T21:18:25;15.15;;;8.48;;
53714;SDS011;39608;55.630;37.864;2022-11-20T21:23:28;27.63;;;10.40;;
53714;SDS011;39608;55.630;37.864;2022-11-20T21:28:30;18.98;;;8.95;;
53714;SDS011;39608;55.630;37.864;2022-11-20T21:33:38;17.00;;;9.65;;
53714;SDS011;39608;55.630;37.864;2022-11-20T21:38:41;16.23;;;9.13;;
53714;SDS011;39608;55.630;37.864;2022-11-20T21:43:44;22.35;;;9.05;;
53714;SDS011;39608;55.630;37.864;2022-11-20T21:48:47;21.90;;;9.13;;
53714;SDS011;39608;55.630;37.864;2022-11-20T21:53:50;15.38;;;7.22;;
53714;SDS011;39608;55.630;37.864;2022-11-20T21:58:54;16.05;;;8.25;;
53714;SDS011;39608;55.630;37.864;2022-11-20T22:03:58;16.42;;;7.40;;
53714;SDS011;39608;55.630;37.864;2022-11-20T22:09:01;16.05;;;8.35;;
53714;SDS011;39608;55.630;37.864;2022-11-20T22:14:04;14.45;;;7.75;;
53714;SDS011;39608;55.630;37.864;2022-11-20T22:19:22;17.80;;;8.13;;
53714;SDS011;39608;55.630;37.864;2022-11-20T22:24:24;20.80;;;8.40;;
53714;SDS011;39608;55.630;37.864;2022-11-20T22:29:26;16.48;;;7.30;;
53714;SDS011;39608;55.630;37.864;2022-11-20T22:34:30;19.88;;;7.70;;
53714;SDS011;39608;55.630;37.864;2022-11-20T22:39:32;15.32;;;7.50;;
53714;SDS011;39608;55.630;37.864;2022-11-20T22:44:34;19.05;;;8.00;;
53714;SDS011;39608;55.630;37.864;2022-11-20T22:49:37;17.73;;;8.20;;
53714;SDS011;39608;55.630;37.864;2022-11-20T22:54:39;11.60;;;6.40;;
53714;SDS011;39608;55.630;37.864;2022-11-20T22:59:41;12.95;;;6.40;;
53714;SDS011;39608;55.630;37.864;2022-11-20T23:04:44;10.52;;;5.68;;
53714;SDS011;39608;55.630;37.864;2022-11-20T23:09:46;16.42;;;6.93;;
53714;SDS011;39608;55.630;37.864;2022-11-20T23:14:48;12.15;;;6.65;;
53714;SDS011;39608;55.630;37.864;2022-11-20T23:19:51;12.75;;;6.53;;
53714;SDS011;39608;55.630;37.864;2022-11-20T23:24:53;19.25;;;7.30;;
53714;SDS011;39608;55.630;37.864;2022-11-20T23:29:55;11.95;;;5.88;;
53714;SDS011;39608;55.630;37.864;2022-11-20T23:34:59;19.15;;;6.10;;
53714;SDS011;39608;55.630;37.864;2022-11-20T23:40:03;12.20;;;6.18;;
53714;SDS011;39608;55.630;37.864;2022-11-20T23:45:07;9.45;;;5.15;;
53714;SDS011;39608;55.630;37.864;2022-11-20T23:50:11;12.05;;;5.55;;
53714;SDS011;39608;55.630;37.864;2022-11-20T23:55:12;10.23;;;5.00;;
